Time;durP1;ratioP1;P1;durP2;ratioP2;P2;SDS_P1;SDS_P2;PMS_P1;PMS_P2;Temp;Humidity;BMP_temperature;BMP_pressure;BME280_temperature;BME280_humidity;BME280_pressure;Samples;Min_cycle;Max_cycle;Signal;HPM_P1;HPM_P2
2023/01/11 00:01:03;;;;;;;3.70;2.00;;;;;;;-13.54;100.00;100637.83;107764;1278;23695;-76
2023/01/11 00:03:31;;;;;;;4.70;2.20;;;;;;;-13.53;100.00;100643.89;107638;1276;22794;-75
2023/01/11 00:06:03;;;;;;;7.00;2.50;;;;;;;-13.52;100.00;100650.65;106848;1276;1002521;-75
2023/01/11 00:08:30;;;;;;;4.30;2.50;;;;;;;-13.53;100.00;100650.14;107790;1276;22799;-75
2023/01/11 00:11:01;;;;;;;6.70;1.80;;;;;;;-13.54;100.00;100657.42;107927;1276;22535;-77
2023/01/11 00:13:29;;;;;;;2.70;1.30;;;;;;;-13.54;100.00;100653.95;107106;1276;1003345;-75
2023/01/11 00:15:57;;;;;;;4.90;2.70;;;;;;;-13.55;100.00;100649.97;107785;1276;23021;-75
2023/01/11 00:18:24;;;;;;;4.30;2.60;;;;;;;-13.56;100.00;100642.00;107124;1276;1002577;-76
2023/01/11 00:20:51;;;;;;;2.50;1.60;;;;;;;-13.56;100.00;100644.25;107128;1276;1003539;-75
2023/01/11 00:23:18;;;;;;;3.70;2.30;;;;;;;-13.56;100.00;100638.52;107301;1274;1003099;-76
2023/01/11 00:25:46;;;;;;;1.50;1.40;;;;;;;-13.55;100.00;100623.09;107240;1275;1002763;-75
2023/01/11 00:28:13;;;;;;;3.40;1.80;;;;;;;-13.55;100.00;100616.50;107226;1274;1002911;-75
2023/01/11 00:30:41;;;;;;;6.30;2.00;;;;;;;-13.56;100.00;100613.58;107278;1274;1002770;-75
2023/01/11 00:33:09;;;;;;;2.80;1.80;;;;;;;-13.55;100.00;100611.98;108055;1273;24299;-75
2023/01/11 00:35:36;;;;;;;4.00;2.10;;;;;;;-13.54;100.00;100614.77;107962;1274;26972;-74
2023/01/11 00:38:04;;;;;;;8.80;1.90;;;;;;;-13.53;100.00;100604.69;107223;1274;1003816;-76
2023/01/11 00:40:31;;;;;;;5.10;1.90;;;;;;;-13.52;100.00;100597.77;107486;1274;1003693;-76
2023/01/11 00:47:55;;;;;;;2.10;1.90;;;;;;;-13.49;100.00;100594.45;108184;1273;22642;-75
2023/01/11 00:48:46;;;;;;;6.90;2.50;;;;;;;-13.48;100.00;100596.02;108179;1274;22540;-74
2023/01/11 00:51:14;;;;;;;1.80;1.70;;;;;;;-13.47;100.00;100599.13;107279;1274;1015726;-76
2023/01/11 00:53:41;;;;;;;2.10;1.90;;;;;;;-13.45;100.00;100608.31;107242;1274;1003027;-74
2023/01/11 00:56:08;;;;;;;2.30;1.90;;;;;;;-13.43;100.00;100611.42;107202;1274;1002960;-76
2023/01/11 00:58:35;;;;;;;2.80;2.00;;;;;;;-13.41;100.00;100607.42;107277;1273;1002462;-76
2023/01/11 01:01:06;;;;;;;3.60;2.20;;;;;;;-13.41;100.00;100604.48;107290;1274;1003544;-75
2023/01/11 01:03:33;;;;;;;5.10;2.60;;;;;;;-13.42;100.00;100599.80;107065;1274;1002631;-75
2023/01/11 01:06:01;;;;;;;6.10;2.50;;;;;;;-13.41;100.00;100593.55;107314;1273;1002471;-75
2023/01/11 01:08:28;;;;;;;4.10;1.90;;;;;;;-13.42;100.00;100589.90;107220;1274;1003270;-77
2023/01/11 01:10:55;;;;;;;3.00;2.40;;;;;;;-13.42;100.00;100595.45;107341;1274;1002479;-74
2023/01/11 01:16:09;;;;;;;2.90;2.40;;;;;;;-13.41;100.00;100583.48;107200;1251;1003833;-75
2023/01/11 01:18:36;;;;;;;3.20;2.20;;;;;;;-13.40;100.00;100580.88;107188;1274;1003081;-75
2023/01/11 01:21:03;;;;;;;5.10;2.70;;;;;;;-13.40;100.00;100580.36;107300;1273;1002541;-74
2023/01/11 01:23:30;;;;;;;3.30;2.30;;;;;;;-13.41;100.00;100579.67;107342;1274;1014850;-76
2023/01/11 01:26:02;;;;;;;6.40;2.30;;;;;;;-13.41;100.00;100571.34;107104;1273;1003682;-76
2023/01/11 01:28:29;;;;;;;4.20;2.40;;;;;;;-13.41;100.00;100565.96;108029;1274;25418;-75
2023/01/11 01:30:57;;;;;;;9.00;3.00;;;;;;;-13.41;100.00;100557.98;107316;1273;1003129;-75
2023/01/11 01:33:24;;;;;;;3.00;2.30;;;;;;;-13.41;100.00;100557.12;107229;1273;1005006;-75
2023/01/11 01:35:51;;;;;;;4.80;2.60;;;;;;;-13.40;100.00;100556.42;107262;1251;1003588;-74
2023/01/11 01:38:19;;;;;;;4.30;2.40;;;;;;;-13.40;100.00;100560.41;107379;1273;1003672;-75
2023/01/11 01:40:47;;;;;;;2.90;2.40;;;;;;;-13.39;100.00;100552.07;107316;1274;1002926;-75
2023/01/11 01:43:16;;;;;;;6.20;2.70;;;;;;;-13.39;100.00;100552.77;107088;1273;1002978;-75
2023/01/11 01:45:43;;;;;;;5.90;2.80;;;;;;;-13.39;100.00;100550.34;107331;1274;1003740;-74
2023/01/11 01:48:12;;;;;;;6.70;3.10;;;;;;;-13.40;100.00;100548.09;107262;1274;1002608;-75
2023/01/11 01:50:51;;;;;;;6.30;2.50;;;;;;;-13.40;100.00;100543.76;107274;1274;1003458;-77
2023/01/11 01:53:27;;;;;;;5.50;2.50;;;;;;;-13.41;100.00;100543.05;107277;1273;1002706;-77
2023/01/11 01:55:57;;;;;;;2.40;2.20;;;;;;;-13.41;100.00;100543.41;107941;1274;22841;-75
2023/01/11 01:58:28;;;;;;;3.30;2.30;;;;;;;-13.39;100.00;100542.18;107152;1273;1002867;-75
2023/01/11 02:00:55;;;;;;;1.90;1.80;;;;;;;-13.38;100.00;100543.75;107907;1273;23190;-74
2023/01/11 02:03:24;;;;;;;3.90;2.60;;;;;;;-13.38;100.00;100537.50;108103;1274;24454;-75
2023/01/11 02:05:52;;;;;;;2.50;2.20;;;;;;;-13.38;100.00;100537.34;107999;1274;22614;-75
2023/01/11 02:08:26;;;;;;;4.70;2.40;;;;;;;-13.38;100.00;100529.70;108019;1257;25600;-76
2023/01/11 02:10:53;;;;;;;6.80;3.30;;;;;;;-13.37;100.00;100526.05;107341;1261;1003073;-76
2023/01/11 02:13:21;;;;;;;8.20;3.20;;;;;;;-13.36;100.00;100519.97;107313;1274;1003919;-76
2023/01/11 02:16:06;;;;;;;5.40;2.30;;;;;;;-13.35;100.00;100516.50;107474;1274;1002828;-75
2023/01/11 02:18:35;;;;;;;4.30;2.80;;;;;;;-13.34;100.00;100511.80;107926;1274;22755;-75
2023/01/11 02:21:08;;;;;;;3.20;2.40;;;;;;;-13.34;100.00;100511.30;107996;1274;22587;-75
2023/01/11 02:23:51;;;;;;;5.70;2.90;;;;;;;-13.34;100.00;100510.78;107530;1273;1002482;-76
2023/01/11 02:26:58;;;;;;;;;;;;;;;-13.34;100.00;100505.75;107200;1274;1002908;-75
2023/01/11 02:29:29;;;;;;;4.30;1.90;;;;;;;-13.35;100.00;100494.29;107463;1281;24213;-76
2023/01/11 02:32:15;;;;;;;5.20;2.80;;;;;;;-13.35;100.00;100490.48;106681;1281;1002655;-75
2023/01/11 02:34:59;;;;;;;7.90;2.80;;;;;;;-13.35;100.00;100481.11;107141;1274;1003777;-75
2023/01/11 02:37:42;;;;;;;6.30;2.90;;;;;;;-13.35;100.00;100482.15;107294;1274;1003422;-75
2023/01/11 02:40:13;;;;;;;4.80;3.00;;;;;;;-13.34;100.00;100481.80;107269;1274;1003565;-76
2023/01/11 02:45:45;;;;;;;5.00;2.80;;;;;;;-13.34;100.00;100476.08;108046;1274;22654;-75
2023/01/11 02:48:19;;;;;;;6.70;3.00;;;;;;;-13.32;100.00;100477.63;107373;1274;1003785;-74
2023/01/11 02:51:06;;;;;;;5.40;2.90;;;;;;;-13.31;100.00;100482.98;107252;1275;1002439;-75
2023/01/11 02:53:36;;;;;;;4.00;2.70;;;;;;;-13.32;100.00;100479.36;107352;1274;1003238;-75
2023/01/11 02:56:09;;;;;;;4.30;3.40;;;;;;;-13.32;100.00;100476.59;107869;1274;24138;-76
2023/01/11 02:58:39;;;;;;;4.50;2.70;;;;;;;-13.32;100.00;100483.52;107120;1274;1002603;-76
2023/01/11 03:01:06;;;;;;;4.60;2.60;;;;;;;-13.31;100.00;100486.80;107453;1274;1002443;-74
2023/01/11 03:03:33;;;;;;;11.10;3.70;;;;;;;-13.31;100.00;100482.98;107258;1274;1003653;-75
2023/01/11 03:06:13;;;;;;;8.30;2.80;;;;;;;-13.31;100.00;100483.85;107466;1275;1003757;-75
2023/01/11 03:09:02;;;;;;;5.80;2.30;;;;;;;-13.29;100.00;100480.70;107412;1274;1003792;-75
2023/01/11 03:15:00;;;;;;;4.70;3.10;;;;;;;-13.27;100.00;100475.14;107501;1274;1002751;-76
2023/01/11 03:17:42;;;;;;;3.50;2.50;;;;;;;-13.26;100.00;100470.09;108086;1275;25504;-75
2023/01/11 03:20:19;;;;;;;9.40;2.70;;;;;;;-13.26;100.00;100474.25;107868;1274;24202;-76
2023/01/11 03:23:09;;;;;;;5.40;2.90;;;;;;;-13.26;100.00;100464.71;108087;1274;22717;-77
2023/01/11 03:25:42;;;;;;;7.10;2.90;;;;;;;-13.25;100.00;100461.92;108291;1274;22717;-74
2023/01/11 03:28:30;;;;;;;5.30;2.60;;;;;;;-13.25;100.00;100456.90;107531;1274;1002778;-74
2023/01/11 03:31:17;;;;;;;5.60;2.20;;;;;;;-13.25;100.00;100449.77;108247;1274;22718;-75
2023/01/11 03:33:57;;;;;;;5.30;2.60;;;;;;;-13.23;100.00;100448.02;107324;1274;1003317;-76
2023/01/11 03:36:37;;;;;;;4.50;2.40;;;;;;;-13.22;100.00;100441.78;107422;1274;1002432;-75
2023/01/11 03:39:16;;;;;;;7.20;3.30;;;;;;;-13.21;100.00;100440.90;107328;1274;1003180;-76
2023/01/11 03:41:43;;;;;;;7.70;3.40;;;;;;;-13.20;100.00;100436.73;108068;1274;24359;-75
2023/01/11 03:44:13;;;;;;;5.00;3.00;;;;;;;-13.19;100.00;100437.05;107254;1275;1003307;-74
2023/01/11 03:46:46;;;;;;;3.80;2.50;;;;;;;-13.18;100.00;100438.98;107310;1275;1002950;-75
2023/01/11 03:49:18;;;;;;;5.30;2.50;;;;;;;-13.19;100.00;100432.73;108084;1274;22542;-74
2023/01/11 03:51:46;;;;;;;3.80;2.70;;;;;;;-13.20;100.00;100435.50;107466;1274;1002609;-75
2023/01/11 03:54:20;;;;;;;8.10;2.80;;;;;;;-13.19;100.00;100431.17;107466;1275;1002485;-75
2023/01/11 03:57:05;;;;;;;6.60;3.40;;;;;;;-13.19;100.00;100427.69;107433;1274;1002538;-76
2023/01/11 03:59:33;;;;;;;11.90;3.80;;;;;;;-13.19;100.00;100428.91;107457;1274;1002598;-77
2023/01/11 04:02:01;;;;;;;5.70;2.80;;;;;;;-13.19;100.00;100425.78;108166;1274;26000;-76
2023/01/11 04:04:28;;;;;;;4.80;2.70;;;;;;;-13.18;100.00;100429.25;107406;1274;1003710;-75
2023/01/11 04:06:55;;;;;;;5.30;2.90;;;;;;;-13.16;100.00;100428.55;107337;1274;1002653;-75
2023/01/11 04:09:23;;;;;;;6.00;3.00;;;;;;;-13.15;100.00;100421.77;108025;1263;22717;-74
2023/01/11 04:11:50;;;;;;;4.50;2.60;;;;;;;-13.15;100.00;100418.64;107996;1275;22486;-78
2023/01/11 04:14:17;;;;;;;5.40;2.60;;;;;;;-13.14;100.00;100414.99;108122;1274;23392;-76
2023/01/11 04:16:44;;;;;;;6.00;2.80;;;;;;;-13.13;100.00;100406.48;108141;1274;22690;-76
2023/01/11 04:19:12;;;;;;;3.50;2.50;;;;;;;-13.12;100.00;100404.20;108098;1274;24078;-74
2023/01/11 04:21:39;;;;;;;3.90;2.50;;;;;;;-13.10;100.00;100401.59;108098;1274;22608;-76
2023/01/11 04:24:06;;;;;;;4.20;2.50;;;;;;;-13.08;100.00;100400.52;108162;1274;24371;-76
2023/01/11 04:26:33;;;;;;;9.50;3.20;;;;;;;-13.07;100.00;100402.25;107325;1274;1003461;-74
2023/01/11 04:29:01;;;;;;;6.40;3.50;;;;;;;-13.06;100.00;100395.14;107611;1257;1015708;-74
2023/01/11 04:31:28;;;;;;;6.20;2.90;;;;;;;-13.05;100.00;100392.88;107380;1273;1002534;-75
2023/01/11 04:33:56;;;;;;;3.50;2.60;;;;;;;-13.03;100.00;100398.23;108219;1274;22967;-76
2023/01/11 04:36:24;;;;;;;4.10;2.70;;;;;;;-13.02;100.00;100393.70;108173;1275;22607;-75
2023/01/11 04:38:51;;;;;;;7.60;2.90;;;;;;;-13.02;100.00;100386.59;108201;1274;22544;-75
2023/01/11 04:44:04;;;;;;;5.70;3.00;;;;;;;-13.01;100.00;100392.15;107392;1274;1002946;-75
2023/01/11 04:46:31;;;;;;;4.60;2.60;;;;;;;-13.00;100.00;100384.83;107463;1273;1016045;-75
2023/01/11 04:48:59;;;;;;;3.60;2.60;;;;;;;-13.00;100.00;100383.27;107367;1274;1002497;-75
2023/01/11 04:51:26;;;;;;;3.10;2.50;;;;;;;-12.99;100.00;100381.36;107456;1273;1003354;-75
2023/01/11 04:53:53;;;;;;;2.30;1.90;;;;;;;-12.98;100.00;100375.11;107267;1274;1002449;-76
2023/01/11 04:56:20;;;;;;;4.30;2.60;;;;;;;-12.97;100.00;100362.60;108072;1274;22562;-75
2023/01/11 04:58:48;;;;;;;5.80;2.50;;;;;;;-12.96;100.00;100355.64;107993;1274;22524;-76
2023/01/11 05:01:17;;;;;;;7.30;2.50;;;;;;;-12.95;100.00;100350.25;107531;1251;1002543;-75
2023/01/11 05:03:44;;;;;;;7.80;3.20;;;;;;;-12.94;100.00;100347.30;108256;1274;26065;-75
2023/01/11 05:06:12;;;;;;;7.90;3.30;;;;;;;-12.92;100.00;100350.73;107168;1274;1002878;-76
2023/01/11 05:08:45;;;;;;;8.90;3.40;;;;;;;-12.91;100.00;100347.43;108107;1275;22571;-76
2023/01/11 05:11:12;;;;;;;;;;;;;;;-12.90;100.00;100349.86;107561;1275;1002927;-76
2023/01/11 05:13:42;;;;;;;4.40;2.60;;;;;;;-12.89;100.00;100354.02;107440;1275;1003450;-75
2023/01/11 05:16:14;;;;;;;2.90;2.40;;;;;;;-12.88;100.00;100352.44;107425;1274;1003070;-75
2023/01/11 05:18:43;;;;;;;5.90;3.00;;;;;;;-12.87;100.00;100344.27;107328;1274;1002922;-74
2023/01/11 05:21:12;;;;;;;5.70;2.90;;;;;;;-12.86;100.00;100344.08;108108;1274;24342;-75
2023/01/11 05:23:41;;;;;;;4.90;2.20;;;;;;;-12.85;100.00;100344.08;108063;1259;22603;-75
2023/01/11 05:26:22;;;;;;;4.60;2.60;;;;;;;-12.85;100.00;100345.46;107233;1273;1002926;-76
2023/01/11 05:28:50;;;;;;;2.60;2.40;;;;;;;-12.84;100.00;100351.86;107385;1274;1003335;-74
2023/01/11 05:31:18;;;;;;;2.90;2.40;;;;;;;-12.83;100.00;100347.52;108229;1274;22808;-76
2023/01/11 05:33:46;;;;;;;4.00;2.90;;;;;;;-12.83;100.00;100346.65;107398;1251;1002731;-76
2023/01/11 05:36:15;;;;;;;3.10;2.30;;;;;;;-12.82;100.00;100350.28;107368;1251;1002900;-75
2023/01/11 05:38:46;;;;;;;7.10;2.80;;;;;;;-12.80;100.00;100353.73;108249;1275;22530;-75
2023/01/11 05:41:14;;;;;;;5.10;2.10;;;;;;;-12.80;100.00;100345.56;107491;1274;1003793;-76
2023/01/11 05:46:33;;;;;;;4.70;2.60;;;;;;;-12.76;100.00;100349.17;107273;1274;1002683;-75
2023/01/11 05:49:01;;;;;;;2.10;1.90;;;;;;;-12.75;100.00;100347.95;108073;1274;25569;-75
2023/01/11 05:51:31;;;;;;;6.60;3.10;;;;;;;-12.74;100.00;100348.12;107351;1274;1002277;-76
2023/01/11 05:54:00;;;;;;;8.30;3.20;;;;;;;-12.73;100.00;100347.23;107233;1274;1002940;-75
2023/01/11 05:56:27;;;;;;;9.60;3.10;;;;;;;-12.72;100.00;100346.00;107301;1274;1002546;-75
2023/01/11 05:58:54;;;;;;;2.70;2.40;;;;;;;-12.69;100.00;100348.23;107984;1274;25652;-76
2023/01/11 06:01:22;;;;;;;6.80;2.60;;;;;;;-12.66;100.00;100349.94;108123;1274;24099;-76
2023/01/11 06:03:50;;;;;;;6.80;2.70;;;;;;;-12.63;100.00;100346.77;108049;1275;24219;-76
2023/01/11 06:06:18;;;;;;;4.20;2.60;;;;;;;-12.59;100.00;100346.23;107345;1275;1002645;-72
2023/01/11 06:08:46;;;;;;;7.90;2.40;;;;;;;-12.54;100.00;100339.71;107079;1274;1003806;-76
2023/01/11 06:11:13;;;;;;;4.30;2.60;;;;;;;-12.38;100.00;100329.61;107245;1274;1003818;-74
2023/01/11 06:13:43;;;;;;;6.40;2.50;;;;;;;-12.23;100.00;100313.25;107210;1274;1003778;-75
2023/01/11 06:16:17;;;;;;;7.80;3.20;;;;;;;-12.15;100.00;100307.77;107372;1274;1003466;-74
2023/01/11 06:18:47;;;;;;;4.40;2.70;;;;;;;-12.11;100.00;100309.27;107181;1274;1003493;-76
2023/01/11 06:21:15;;;;;;;7.50;3.40;;;;;;;-12.11;100.00;100317.26;107179;1274;1003682;-74
2023/01/11 06:23:44;;;;;;;7.00;3.00;;;;;;;-12.11;100.00;100323.86;107992;1274;22668;-74
2023/01/11 06:26:13;;;;;;;4.70;2.80;;;;;;;-12.09;100.00;100330.62;108076;1275;22773;-77
2023/01/11 06:28:41;;;;;;;4.90;2.10;;;;;;;-12.06;100.00;100330.05;107854;1274;24317;-75
2023/01/11 06:31:08;;;;;;;4.30;2.60;;;;;;;-12.04;100.00;100330.02;107187;1274;1003048;-77
2023/01/11 06:33:35;;;;;;;7.30;3.20;;;;;;;-12.00;100.00;100321.27;107254;1273;1002654;-76
2023/01/11 06:36:07;;;;;;;6.20;3.00;;;;;;;-11.96;100.00;100320.00;108030;1274;26753;-76
2023/01/11 06:38:35;;;;;;;4.70;2.40;;;;;;;-11.91;100.00;100322.36;107228;1274;1003074;-76
2023/01/11 06:41:03;;;;;;;2.60;2.40;;;;;;;-11.86;100.00;100325.73;107973;1274;22721;-76
2023/01/11 06:43:31;;;;;;;5.30;2.70;;;;;;;-11.79;100.00;100331.02;107301;1274;1003015;-76
2023/01/11 06:45:58;;;;;;;4.00;2.40;;;;;;;-11.73;100.00;100327.44;108467;1274;24236;-75
2023/01/11 06:48:26;;;;;;;6.60;3.30;;;;;;;-11.67;100.00;100326.31;107406;1267;1003198;-76
2023/01/11 06:50:55;;;;;;;4.40;2.70;;;;;;;-11.61;100.00;100317.52;107554;1274;1002910;-76
2023/01/11 06:53:23;;;;;;;6.40;2.80;;;;;;;-11.54;100.00;100318.45;107792;1274;1002867;-74
2023/01/11 06:55:56;;;;;;;4.40;2.70;;;;;;;-11.51;100.00;100324.48;107343;1274;1003182;-77
2023/01/11 06:58:24;;;;;;;12.40;3.80;;;;;;;-11.49;100.00;100338.89;107447;1273;1003245;-77
2023/01/11 07:00:53;;;;;;;8.50;2.50;;;;;;;-11.44;100.00;100346.98;107654;1275;1003407;-76
2023/01/11 07:03:22;;;;;;;7.20;2.60;;;;;;;-11.40;100.00;100352.51;107533;1274;1002851;-74
2023/01/11 07:05:51;;;;;;;3.60;2.40;;;;;;;-11.37;100.00;100354.52;106827;1270;1003052;-76
2023/01/11 07:08:18;;;;;;;7.50;3.30;;;;;;;-11.33;100.00;100357.42;107736;1270;24314;-76
2023/01/11 07:10:46;;;;;;;5.00;2.70;;;;;;;-11.27;100.00;100362.38;107888;1275;24235;-74
2023/01/11 07:13:16;;;;;;;6.90;3.40;;;;;;;-11.22;100.00;100368.20;107335;1275;1003290;-76
2023/01/11 07:15:45;;;;;;;13.00;5.50;;;;;;;-11.16;100.00;100368.99;107416;1274;1003174;-77
2023/01/11 07:18:13;;;;;;;3.20;2.80;;;;;;;-11.13;100.00;100372.59;107845;1275;22751;-76
2023/01/11 07:20:40;;;;;;;4.80;3.10;;;;;;;-11.10;100.00;100379.14;107908;1275;22686;-72
2023/01/11 07:23:08;;;;;;;11.80;3.40;;;;;;;-11.04;100.00;100384.42;107664;1275;26083;-76
2023/01/11 07:25:36;;;;;;;3.50;2.50;;;;;;;-10.96;100.00;100386.39;107618;1275;22993;-75
2023/01/11 07:28:06;;;;;;;3.60;2.60;;;;;;;-10.84;100.00;100370.51;106777;1275;1002777;-74
2023/01/11 07:30:35;;;;;;;5.50;2.70;;;;;;;-10.68;100.00;100356.11;106999;1275;1003081;-75
2023/01/11 07:33:23;;;;;;;3.90;2.60;;;;;;;-10.49;100.00;100351.52;107117;1273;1003625;-75
2023/01/11 07:35:50;;;;;;;6.50;2.80;;;;;;;-10.35;100.00;100349.86;106974;1270;1002612;-75
2023/01/11 07:38:17;;;;;;;5.20;2.80;;;;;;;-10.21;100.00;100359.66;107104;1267;1003268;-75
2023/01/11 07:40:45;;;;;;;9.70;3.20;;;;;;;-10.04;100.00;100352.46;107405;1275;1002906;-77
2023/01/11 07:43:14;;;;;;;6.60;3.20;;;;;;;-9.85;100.00;100360.27;107270;1275;1003666;-73
2023/01/11 07:45:43;;;;;;;7.50;3.90;;;;;;;-9.64;100.00;100366.42;108095;1274;1002484;-74
2023/01/11 07:48:26;;;;;;;8.60;3.40;;;;;;;-9.44;100.00;100381.99;108699;1275;22656;-72
2023/01/11 07:50:54;;;;;;;4.30;3.20;;;;;;;-9.28;100.00;100409.05;108799;1274;22981;-73
2023/01/11 07:53:24;;;;;;;12.10;4.90;;;;;;;-9.12;100.00;100421.56;107171;1275;1003206;-76
2023/01/11 07:55:54;;;;;;;7.90;3.30;;;;;;;-8.96;100.00;100436.89;108118;1274;25507;-76
2023/01/11 07:58:21;;;;;;;3.70;2.40;;;;;;;-8.84;100.00;100462.12;106858;1274;1003030;-76
2023/01/11 08:00:48;;;;;;;5.40;3.10;;;;;;;-8.76;100.00;100485.17;107084;1274;1003576;-74
2023/01/11 08:03:16;;;;;;;8.90;3.30;;;;;;;-8.71;100.00;100512.81;107784;1274;24219;-76
2023/01/11 08:05:48;;;;;;;4.10;2.70;;;;;;;-8.59;100.00;100535.26;106982;1275;1004622;-73
2023/01/11 08:08:15;;;;;;;6.40;3.20;;;;;;;-8.50;100.00;100558.63;106270;1274;1003330;-74
2023/01/11 08:10:43;;;;;;;5.30;3.20;;;;;;;-8.37;100.00;100579.27;107227;1275;22559;-75
2023/01/11 08:15:59;;;;;;;6.00;2.70;;;;;;;-8.12;100.00;100617.14;107048;1275;22738;-73
2023/01/11 08:18:26;;;;;;;8.40;3.00;;;;;;;-8.06;100.00;100631.31;106420;1270;1003500;-74
2023/01/11 08:20:54;;;;;;;12.80;3.90;;;;;;;-7.96;100.00;100648.20;106776;1274;1003645;-73
2023/01/11 08:23:21;;;;;;;5.60;3.60;;;;;;;-7.74;100.00;100649.56;106457;1275;1016339;-75
2023/01/11 08:25:49;;;;;;;8.70;3.50;;;;;;;-7.52;100.00;100653.20;107072;1256;22597;-76
2023/01/11 08:28:16;;;;;;;9.00;3.40;;;;;;;-7.38;100.00;100646.34;107112;1273;22904;-73
2023/01/11 08:30:43;;;;;;;6.40;2.50;;;;;;;-7.30;100.00;100653.45;106481;1269;1003113;-74
2023/01/11 08:33:11;;;;;;;16.20;6.50;;;;;;;-7.17;100.00;100641.35;107396;1274;24223;-75
2023/01/11 08:35:42;;;;;;;8.00;3.60;;;;;;;-7.05;100.00;100641.20;106816;1274;1003812;-75
2023/01/11 08:38:12;;;;;;;5.50;3.00;;;;;;;-6.96;100.00;100640.74;107116;1274;23851;-74
2023/01/11 08:40:39;;;;;;;6.40;3.70;;;;;;;-6.87;100.00;100643.13;106867;1269;233541;-73
2023/01/11 08:43:07;;;;;;;7.50;3.20;;;;;;;-6.78;100.00;100637.77;107158;1267;25448;-74
2023/01/11 08:45:34;;;;;;;6.70;3.20;;;;;;;-6.68;100.00;100634.65;106731;1270;1003566;-74
2023/01/11 08:48:01;;;;;;;3.60;2.80;;;;;;;-6.53;100.00;100626.48;107129;1273;1002846;-74
2023/01/11 08:50:28;;;;;;;3.20;2.30;;;;;;;-6.38;100.00;100624.77;107795;1275;22497;-74
2023/01/11 08:52:56;;;;;;;5.40;3.10;;;;;;;-6.32;100.00;100633.89;106857;1275;1003486;-75
2023/01/11 08:55:24;;;;;;;10.20;3.50;;;;;;;-6.33;100.00;100646.02;106541;1275;1003000;-78
2023/01/11 08:57:51;;;;;;;4.40;2.60;;;;;;;-6.18;100.00;100634.31;108188;1274;23854;-77
2023/01/11 09:00:19;;;;;;;14.50;5.70;;;;;;;-5.97;100.00;100626.93;107605;1270;1002789;-78
2023/01/11 09:02:46;;;;;;;10.30;4.90;;;;;;;-5.82;100.00;100626.58;108086;1274;24221;-73
2023/01/11 09:05:14;;;;;;;7.30;3.70;;;;;;;-5.80;100.00;100633.52;107094;1275;1002819;-76
2023/01/11 09:07:44;;;;;;;8.80;3.40;;;;;;;-5.72;100.00;100635.91;108203;1267;22640;-77
2023/01/11 09:10:12;;;;;;;4.00;2.80;;;;;;;-5.68;100.00;100631.19;107394;1274;1003029;-73
2023/01/11 09:12:39;;;;;;;7.60;3.60;;;;;;;-5.65;100.00;100636.04;108089;1273;22530;-76
2023/01/11 09:15:08;;;;;;;7.50;3.00;;;;;;;-5.61;100.00;100635.34;107826;1269;22527;-75
2023/01/11 09:17:35;;;;;;;4.70;3.00;;;;;;;-5.50;100.00;100638.13;107911;1266;22612;-75
2023/01/11 09:20:04;;;;;;;8.90;3.60;;;;;;;-5.40;100.00;100634.27;108038;1269;22454;-77
2023/01/11 09:22:32;;;;;;;14.30;4.50;;;;;;;-5.29;100.00;100633.68;108126;1275;22481;-76
2023/01/11 09:25:00;;;;;;;12.70;5.20;;;;;;;-5.11;100.00;100626.16;107898;1275;22518;-76
2023/01/11 09:27:28;;;;;;;7.40;3.30;;;;;;;-4.91;100.00;100627.72;107913;1274;22482;-78
2023/01/11 09:29:55;;;;;;;8.00;3.40;;;;;;;-4.80;100.00;100630.30;108012;1274;24241;-76
2023/01/11 09:32:22;;;;;;;12.80;4.80;;;;;;;-4.77;100.00;100644.42;107821;1251;22552;-76
2023/01/11 09:34:56;;;;;;;7.00;3.50;;;;;;;-4.82;100.00;100657.27;107250;1274;1002906;-78
2023/01/11 09:37:23;;;;;;;9.90;3.60;;;;;;;-4.80;100.00;100660.37;107061;1269;1003772;-68
2023/01/11 09:40:00;;;;;;;12.90;4.90;;;;;;;-4.80;100.00;100662.81;106426;1269;1003587;-68
2023/01/11 09:42:35;;;;;;;16.70;5.00;;;;;;;-4.86;100.00;100671.48;107063;1270;24245;-69
2023/01/11 09:45:06;;;;;;;17.50;5.20;;;;;;;-4.91;100.00;100673.27;107525;1267;24224;-69
2023/01/11 09:47:39;;;;;;;12.30;3.70;;;;;;;-4.89;100.00;100667.18;106629;1275;1004112;-69
2023/01/11 09:50:31;;;;;;;8.60;3.50;;;;;;;-4.81;100.00;100664.08;107294;1260;22521;-68
2023/01/11 09:53:03;;;;;;;8.90;4.30;;;;;;;-4.74;100.00;100661.22;106286;1267;1003293;-67
2023/01/11 09:55:42;;;;;;;20.30;6.60;;;;;;;-4.73;100.00;100659.06;106560;1269;1003402;-71
2023/01/11 09:58:23;;;;;;;7.80;3.70;;;;;;;-4.69;100.00;100648.16;107209;1274;25245;-67
2023/01/11 10:00:59;;;;;;;10.30;3.80;;;;;;;-4.57;100.00;100643.45;106019;1270;1003749;-67
2023/01/11 10:34:23;;;;;;;7.30;3.50;;;;;;;-4.00;100.00;100604.70;106541;1270;1003280;-69
2023/01/11 10:42:51;;;;;;;6.40;3.70;;;;;;;-3.70;100.00;100584.23;107542;1270;22475;-69
2023/01/11 10:45:24;;;;;;;6.60;3.10;;;;;;;-3.60;100.00;100586.64;107750;1270;25294;-71
2023/01/11 10:48:00;;;;;;;4.20;2.30;;;;;;;-3.62;100.00;100590.91;108287;1272;22518;-67
2023/01/11 10:51:06;;;;;;;4.90;3.10;;;;;;;-3.60;100.00;100595.43;106838;1274;1002688;-69
2023/01/11 10:53:48;;;;;;;10.50;3.50;;;;;;;-3.53;100.00;100590.01;106817;1274;1003138;-69
2023/01/11 10:56:34;;;;;;;8.40;3.40;;;;;;;-3.49;100.00;100592.85;107698;1263;22580;-70
2023/01/11 10:59:49;;;;;;;12.40;3.30;;;;;;;-3.49;100.00;100589.52;107676;1274;22618;-69
2023/01/11 11:02:37;;;;;;;61.80;16.60;;;;;;;-3.51;100.00;100601.60;107453;1267;22523;-67
2023/01/11 11:05:17;;;;;;;9.70;4.10;;;;;;;-3.50;100.00;100598.72;107154;1269;1002903;-70
2023/01/11 11:07:51;;;;;;;8.00;3.50;;;;;;;-3.50;100.00;100598.17;107625;1272;22538;-68
2023/01/11 11:10:24;;;;;;;6.20;2.80;;;;;;;-3.52;100.00;100600.39;107494;1274;22524;-69
2023/01/11 11:13:11;;;;;;;8.30;3.40;;;;;;;-3.57;100.00;100604.12;107293;1274;22603;-69
2023/01/11 11:15:49;;;;;;;6.20;3.20;;;;;;;-3.50;100.00;100588.11;106548;1275;1003605;-68
2023/01/11 11:18:16;;;;;;;8.50;2.70;;;;;;;-3.43;100.00;100581.98;106788;1267;1003427;-69
2023/01/11 11:20:45;;;;;;;8.50;3.00;;;;;;;-3.42;100.00;100584.27;107227;1270;23961;-67
2023/01/11 11:23:17;;;;;;;6.50;3.20;;;;;;;-3.45;100.00;100585.79;106796;1269;1003232;-69
2023/01/11 11:25:50;;;;;;;5.40;3.60;;;;;;;-3.45;100.00;100581.55;107525;1266;24333;-69
2023/01/11 11:28:29;;;;;;;5.80;2.40;;;;;;;-3.37;100.00;100569.57;106703;1269;1003266;-71
2023/01/11 11:31:01;;;;;;;8.30;3.40;;;;;;;-3.28;100.00;100567.77;106647;1267;1002948;-68
2023/01/11 11:33:35;;;;;;;5.60;3.10;;;;;;;-3.27;100.00;100574.08;107368;1269;22533;-68
2023/01/11 11:36:05;;;;;;;14.80;3.40;;;;;;;-3.27;100.00;100566.79;107275;1267;25486;-65
2023/01/11 11:38:34;;;;;;;7.20;2.80;;;;;;;-3.20;100.00;100567.77;106529;1267;1002854;-68
2023/01/11 11:41:06;;;;;;;6.50;3.00;;;;;;;-3.14;100.00;100563.59;106888;1270;1002941;-68
2023/01/11 11:43:35;;;;;;;12.50;3.10;;;;;;;-3.07;100.00;100560.25;107347;1253;25524;-66
2023/01/11 11:46:05;;;;;;;6.50;3.90;;;;;;;-3.02;100.00;100566.58;106523;1267;1003113;-66
2023/01/11 11:48:33;;;;;;;58.30;13.60;;;;;;;-2.99;100.00;100566.98;106510;1272;1003561;-65
2023/01/11 11:51:02;;;;;;;8.80;3.90;;;;;;;-2.94;100.00;100560.36;106592;1268;1003538;-68
2023/01/11 11:53:29;;;;;;;8.20;2.90;;;;;;;-2.86;100.00;100559.64;107573;1267;24496;-65
2023/01/11 11:55:57;;;;;;;7.40;3.20;;;;;;;-2.81;100.00;100557.46;106676;1267;1003058;-65
2023/01/11 11:58:24;;;;;;;5.00;2.80;;;;;;;-2.74;100.00;100556.41;107220;1272;22526;-68
2023/01/11 12:00:52;;;;;;;3.70;2.00;;;;;;;-2.48;100.00;100553.57;106039;1267;1003211;-68
2023/01/11 12:03:23;;;;;;;26.70;9.40;;;;;;;-2.25;100.00;100555.08;106113;1267;1003615;-66
2023/01/11 12:06:03;;;;;;;40.60;15.40;;;;;;;-2.19;100.00;100562.54;106926;1269;22534;-66
2023/01/11 12:08:32;;;;;;;15.70;7.60;;;;;;;-1.97;100.00;100565.36;106853;1263;24232;-65